Pilot, Virginia
Current Conditions -  °F | °C
As of 12:35 AM on Thursday 18 Dec 2014 (Local Time) from KBCB Reporting Station
Scattered Clouds Scattered Clouds  
Wind Chill: -4°   Ceiling: Unl
Heat Index:   Visibility: 10mi
Dew Point: -5°   Wind: 9mph
Humidity: 72%   Direction: 280°W
Pressure: 30.1"   Gusts: 17mph
Location:  37.05°N, 80.36°W
Report Text: KBCB 180535Z AUTO 28008G15KT 250V310 10SM SCT023 00/M04 A3010 RMK AO2 T00001045
Loading
Personal Weather Stations






























Interactive Weather Map New forecast layout! Learn more

10-Day Weather Forecast

Advertisements
Track Severe Weather on mobile